createdAt,value
2022-09-14T00:10:55.013Z,20.7
2022-09-14T00:25:25.241Z,20.8
2022-09-14T00:39:54.480Z,20.4
2022-09-14T00:54:23.275Z,20.6
2022-09-14T01:08:52.105Z,20.6
2022-09-14T01:23:22.111Z,20.3
2022-09-14T01:37:53.023Z,20.6
2022-09-14T01:52:22.303Z,20.6
2022-09-14T02:06:52.143Z,20.2
2022-09-14T02:21:21.482Z,20.5
2022-09-14T02:35:51.815Z,20.2
2022-09-14T02:50:18.939Z,20.2
2022-09-14T03:04:51.147Z,20.4
2022-09-14T03:19:20.788Z,20.1
2022-09-14T03:33:49.216Z,20.2
2022-09-14T03:48:17.650Z,20.2
2022-09-14T04:02:47.217Z,20.1
2022-09-14T04:17:16.670Z,19.9
2022-09-14T04:31:47.057Z,20
2022-09-14T04:46:16.517Z,20
2022-09-14T05:00:46.068Z,20.2
2022-09-14T05:15:16.370Z,20.1
2022-09-14T05:29:44.003Z,20
2022-09-14T05:44:13.877Z,20
2022-09-14T05:58:42.392Z,20
2022-09-14T06:13:14.169Z,19.8
2022-09-14T06:27:42.772Z,20
2022-09-14T06:42:12.361Z,20.1
2022-09-14T06:56:42.906Z,19.9
2022-09-14T07:11:12.384Z,19.9
2022-09-14T07:25:42.473Z,19.8
2022-09-14T07:40:11.494Z,19.8
2022-09-14T07:54:41.679Z,19.9
2022-09-14T08:09:11.806Z,20
2022-09-14T08:23:42.071Z,20.1
2022-09-14T08:38:11.565Z,20
2022-09-14T08:52:41.849Z,20.3
2022-09-14T09:07:11.008Z,20.1
2022-09-14T09:21:41.447Z,20.2
2022-09-14T09:36:10.612Z,20
2022-09-14T09:50:40.932Z,20
2022-09-14T10:05:09.581Z,19.6
2022-09-14T10:19:38.490Z,19.6
2022-09-14T10:34:09.400Z,19.7
2022-09-14T10:48:41.703Z,19.4
2022-09-14T11:03:11.400Z,19.5
2022-09-14T11:17:40.984Z,19.6
2022-09-14T11:32:20.721Z,19.3
2022-09-14T11:46:44.737Z,19.4
2022-09-14T12:01:14.173Z,19.3
2022-09-14T12:15:45.238Z,19.2
2022-09-14T12:30:14.386Z,19.8
2022-09-14T12:44:45.173Z,20
2022-09-14T12:59:15.005Z,20.2
2022-09-14T13:13:46.231Z,20.2
2022-09-14T13:28:15.643Z,20.1
2022-09-14T13:42:46.130Z,20
2022-09-14T13:57:16.529Z,20
2022-09-14T14:11:48.884Z,19.8
2022-09-14T14:26:18.341Z,20
2022-09-14T14:40:46.555Z,19.7
2022-09-14T14:55:16.525Z,19.9
2022-09-14T15:09:46.321Z,19.8
2022-09-14T15:24:16.595Z,19.6
2022-09-14T15:38:46.255Z,19.7
2022-09-14T15:53:14.386Z,19.4
2022-09-14T16:07:44.454Z,19.4
2022-09-14T16:22:14.366Z,19.4
2022-09-14T16:36:44.762Z,19.5
2022-09-14T16:51:14.670Z,19.1
2022-09-14T17:05:42.361Z,19
2022-09-14T17:20:11.327Z,18.5
2022-09-14T17:34:40.424Z,18.7
2022-09-14T17:49:07.316Z,18.3
2022-09-14T18:03:37.901Z,18.3
2022-09-14T18:18:08.038Z,18.2
2022-09-14T18:32:38.947Z,18.1
2022-09-14T18:47:07.511Z,18.3
2022-09-14T19:01:37.644Z,18.2
2022-09-14T19:16:07.940Z,18.3
2022-09-14T19:30:37.927Z,18.2
2022-09-14T19:45:07.874Z,18.3
2022-09-14T19:59:38.132Z,17.6
2022-09-14T20:14:09.765Z,18
2022-09-14T20:28:37.809Z,17.7
2022-09-14T20:43:07.772Z,17.9
2022-09-14T20:57:37.381Z,17.7
2022-09-14T21:12:06.562Z,17.6
2022-09-14T21:26:40.600Z,17.4
2022-09-14T21:41:09.296Z,17.1
2022-09-14T21:55:38.843Z,17
2022-09-14T22:10:07.685Z,16.9
2022-09-14T22:24:38.456Z,16.8
2022-09-14T22:39:07.398Z,16.6
2022-09-14T22:53:37.091Z,16.8
2022-09-14T23:08:06.358Z,16.5
2022-09-14T23:22:37.445Z,16.5
2022-09-14T23:37:07.151Z,16.6
2022-09-14T23:51:36.335Z,16.6
